createdAt,value
2022-12-24T00:00:17.438Z,99718.00
2022-12-24T00:02:52.325Z,99731.25
2022-12-24T00:05:20.823Z,99733.63
2022-12-24T00:07:49.266Z,99742.91
2022-12-24T00:10:17.786Z,99744.53
2022-12-24T00:12:46.243Z,99742.13
2022-12-24T00:15:16.224Z,99750.50
2022-12-24T00:17:44.699Z,99761.00
2022-12-24T00:20:13.503Z,99753.31
2022-12-24T00:22:42.083Z,99755.25
2022-12-24T00:25:10.999Z,99755.06
2022-12-24T00:27:39.553Z,99763.72
2022-12-24T00:30:09.123Z,99767.38
2022-12-24T00:32:39.060Z,99768.00
2022-12-24T00:35:08.500Z,99756.66
2022-12-24T00:37:36.866Z,99749.31
2022-12-24T00:40:06.227Z,99769.41
2022-12-24T00:42:34.742Z,99764.16
2022-12-24T00:45:03.253Z,99760.00
2022-12-24T00:47:31.669Z,99758.38
2022-12-24T00:50:02.356Z,99772.63
2022-12-24T00:52:30.874Z,99771.22
2022-12-24T00:54:59.464Z,99772.44
2022-12-24T00:57:27.968Z,99766.19
2022-12-24T00:59:56.340Z,99782.03
2022-12-24T01:02:25.391Z,99796.47
2022-12-24T01:05:11.937Z,99800.50
2022-12-24T01:07:44.446Z,99816.38
2022-12-24T01:10:15.180Z,99812.31
2022-12-24T01:12:44.870Z,99805.34
2022-12-24T01:15:14.860Z,99816.78
2022-12-24T01:17:43.486Z,99825.25
2022-12-24T01:20:15.443Z,99832.03
2022-12-24T01:22:45.397Z,99829.28
2022-12-24T01:25:13.980Z,99833.94
2022-12-24T01:27:42.355Z,99842.94
2022-12-24T01:30:14.901Z,99843.34
2022-12-24T01:32:43.515Z,99847.97
2022-12-24T01:35:12.577Z,99872.81
2022-12-24T01:37:43.287Z,99864.09
2022-12-24T01:40:34.276Z,99868.75
2022-12-24T01:43:20.969Z,99867.53
2022-12-24T01:45:52.095Z,99877.84
2022-12-24T01:48:33.068Z,99885.50
2022-12-24T01:51:07.507Z,99878.03
2022-12-24T01:53:39.312Z,99883.50
2022-12-24T01:56:11.455Z,99890.16
2022-12-24T01:58:43.734Z,99881.66
2022-12-24T02:01:12.710Z,99890.75
2022-12-24T02:03:41.287Z,99894.72
2022-12-24T02:06:12.161Z,99904.28
2022-12-24T02:08:43.235Z,99906.53
2022-12-24T02:11:15.501Z,99909.75
2022-12-24T02:13:47.191Z,99915.41
2022-12-24T02:16:28.902Z,99923.41
2022-12-24T02:19:07.126Z,99914.22
2022-12-24T02:21:49.162Z,99915.63
2022-12-24T02:24:55.446Z,99916.75
2022-12-24T02:27:38.389Z,99918.16
2022-12-24T02:30:13.511Z,99923.31
2022-12-24T02:32:57.069Z,99932.22
2022-12-24T02:35:38.555Z,99947.56
2022-12-24T02:38:16.093Z,99942.72
2022-12-24T02:40:49.907Z,99944.34
2022-12-24T02:43:23.041Z,99944.34
2022-12-24T02:45:59.780Z,99957.44
2022-12-24T02:48:31.503Z,99960.69
2022-12-24T02:51:04.326Z,99949.38
2022-12-24T02:53:33.548Z,99958.97
2022-12-24T02:56:23.970Z,99963.72
2022-12-24T02:59:12.886Z,99968.66
2022-12-24T03:01:51.915Z,99959.06
2022-12-24T03:04:39.537Z,99961.88
2022-12-24T03:07:17.775Z,99972.06
2022-12-24T03:09:57.951Z,99981.63
2022-12-24T03:12:31.711Z,99983.09
2022-12-24T03:15:01.633Z,99980.28
2022-12-24T03:17:33.766Z,99971.38
2022-12-24T03:20:02.620Z,99984.56
2022-12-24T03:22:33.536Z,99974.59
2022-12-24T03:25:02.344Z,99976.34
2022-12-24T03:27:33.362Z,99978.03
2022-12-24T03:30:03.385Z,99977.34
2022-12-24T03:32:33.892Z,99981.09
2022-12-24T03:35:02.415Z,99972.78
2022-12-24T03:37:30.756Z,99983.09
2022-12-24T03:39:59.411Z,99993.19
2022-12-24T03:42:27.910Z,100001.28
2022-12-24T03:44:56.440Z,100003.31
2022-12-24T03:47:24.830Z,100001.09
2022-12-24T03:49:54.609Z,100000.97
2022-12-24T03:52:23.020Z,100006.53
2022-12-24T03:54:51.324Z,100008.13
2022-12-24T03:57:19.833Z,100013.72
2022-12-24T03:59:48.213Z,100009.59
2022-12-24T04:02:16.748Z,100023.03
2022-12-24T04:04:45.490Z,100016.69
2022-12-24T04:07:15.276Z,100017.06
2022-12-24T04:09:43.844Z,100023.34
2022-12-24T04:12:12.269Z,100018.09
2022-12-24T04:14:40.647Z,100022.53
2022-12-24T04:17:09.016Z,100013.44
2022-12-24T04:19:37.343Z,100026.19
2022-12-24T04:22:05.897Z,100013.25
2022-12-24T04:24:35.601Z,100019.91
2022-12-24T04:27:04.108Z,100026.28
2022-12-24T04:29:32.456Z,100034.88
2022-12-24T04:32:00.965Z,100033.66
2022-12-24T04:34:29.790Z,100045.56
2022-12-24T04:36:58.157Z,100039.81
2022-12-24T04:39:26.605Z,100040.53
2022-12-24T04:41:56.324Z,100047.41
2022-12-24T04:44:24.732Z,100050.34
2022-12-24T04:46:53.286Z,100047.38
2022-12-24T04:49:21.703Z,100057.63
2022-12-24T04:51:50.238Z,100055.69
2022-12-24T04:54:18.642Z,100051.88
2022-12-24T04:56:46.951Z,100045.38
2022-12-24T04:59:16.791Z,100059.34
2022-12-24T05:01:45.269Z,100059.13
2022-12-24T05:04:13.730Z,100052.06
2022-12-24T05:06:42.105Z,100056.81
2022-12-24T05:09:10.531Z,100054.38
2022-12-24T05:11:39.057Z,100054.91
2022-12-24T05:14:07.437Z,100059.75
2022-12-24T05:16:38.643Z,100061.75
2022-12-24T05:19:07.174Z,100051.22
2022-12-24T05:21:35.513Z,100055.88
2022-12-24T05:24:21.796Z,100063.59
2022-12-24T05:26:52.576Z,100066.19
2022-12-24T05:29:22.485Z,100066.91
2022-12-24T05:31:52.169Z,100067.81
2022-12-24T05:34:20.565Z,100067.81
2022-12-24T05:36:48.881Z,100068.31
2022-12-24T05:39:19.112Z,100064.78
2022-12-24T05:41:48.017Z,100064.47
2022-12-24T05:44:17.074Z,100072.47
2022-12-24T05:46:45.804Z,100075.06
2022-12-24T05:49:15.779Z,100078.78
2022-12-24T05:51:44.446Z,100086.09
2022-12-24T05:54:12.994Z,100089.84
2022-12-24T05:56:41.396Z,100083.75
2022-12-24T05:59:09.897Z,100091.22
2022-12-24T06:01:38.327Z,100094.03
2022-12-24T06:04:06.821Z,100091.44
2022-12-24T06:06:36.742Z,100094.47
2022-12-24T06:09:05.229Z,100094.47
2022-12-24T06:11:33.708Z,100082.84
2022-12-24T06:14:02.228Z,100094.03
2022-12-24T06:16:30.760Z,100092.03
2022-12-24T06:18:59.636Z,100098.69
2022-12-24T06:21:28.048Z,100095.44
2022-12-24T06:23:57.881Z,100113.66
2022-12-24T06:26:26.543Z,100107.81
2022-12-24T06:28:55.636Z,100112.47
2022-12-24T06:31:24.806Z,100124.66
2022-12-24T06:33:53.844Z,100125.16
2022-12-24T06:36:23.910Z,100123.84
2022-12-24T06:38:54.039Z,100130.03
2022-12-24T06:41:24.468Z,100125.09
2022-12-24T06:43:54.796Z,100133.28
2022-12-24T06:46:23.665Z,100145.13
2022-12-24T06:48:52.253Z,100144.09
2022-12-24T06:51:20.806Z,100133.59
2022-12-24T06:53:50.468Z,100141.66
2022-12-24T06:56:20.594Z,100138.72
2022-12-24T06:58:50.489Z,100140.94
2022-12-24T07:01:21.126Z,100154.13
2022-12-24T07:03:49.856Z,100159.56
2022-12-24T07:06:21.160Z,100152.19
2022-12-24T07:08:50.747Z,100152.72
2022-12-24T07:11:19.826Z,100164.13
2022-12-24T07:13:50.062Z,100159.50
2022-12-24T07:16:19.353Z,100163.03
2022-12-24T07:18:48.145Z,100163.84
2022-12-24T07:21:16.717Z,100160.91
2022-12-24T07:23:45.344Z,100167.91
2022-12-24T07:26:13.932Z,100176.19
2022-12-24T07:28:42.600Z,100166.06
2022-12-24T07:31:12.543Z,100172.03
2022-12-24T07:33:41.566Z,100170.72
2022-12-24T07:36:16.930Z,100181.84
2022-12-24T07:38:45.685Z,100184.88
2022-12-24T07:41:14.490Z,100196.00
2022-12-24T07:43:43.146Z,100184.06
2022-12-24T07:46:13.028Z,100197.31
2022-12-24T07:48:41.636Z,100198.44
2022-12-24T07:51:10.533Z,100198.44
2022-12-24T07:53:39.035Z,100202.19
2022-12-24T07:56:12.599Z,100198.53
2022-12-24T07:58:42.038Z,100213.19
2022-12-24T08:01:12.149Z,100202.06
2022-12-24T08:03:42.470Z,100207.94
2022-12-24T08:06:12.024Z,100218.06
2022-12-24T08:08:40.390Z,100231.78
2022-12-24T08:11:09.818Z,100224.31
2022-12-24T08:13:38.233Z,100246.09
2022-12-24T08:16:07.047Z,100236.50
2022-12-24T08:18:37.746Z,100246.38
2022-12-24T08:21:21.625Z,100254.91
2022-12-24T08:23:49.967Z,100247.03
2022-12-24T08:26:18.447Z,100258.53
2022-12-24T08:28:46.974Z,100266.66
2022-12-24T08:31:15.886Z,100263.22
2022-12-24T08:33:44.524Z,100265.44
2022-12-24T08:36:12.986Z,100272.44
2022-12-24T08:38:42.790Z,100276.06
2022-12-24T08:41:11.201Z,100301.53
2022-12-24T08:43:40.631Z,100285.88
2022-12-24T08:46:09.202Z,100297.09
2022-12-24T08:48:38.270Z,100295.81
2022-12-24T08:51:10.645Z,100289.31
2022-12-24T08:53:40.105Z,100294.41
2022-12-24T08:56:11.360Z,100301.28
2022-12-24T08:58:39.947Z,100303.91
2022-12-24T09:01:13.757Z,100304.59
2022-12-24T09:03:42.833Z,100313.09
2022-12-24T09:06:12.002Z,100317.06
2022-12-24T09:08:40.972Z,100316.69
2022-12-24T09:11:12.620Z,100325.81
2022-12-24T09:13:41.804Z,100333.00
2022-12-24T09:16:10.564Z,100336.56
2022-12-24T09:18:39.639Z,100334.38
2022-12-24T09:21:11.261Z,100333.25
2022-12-24T09:23:40.564Z,100329.84
2022-12-24T09:26:13.430Z,100329.06
2022-12-24T09:28:42.008Z,100341.41
2022-12-24T09:31:12.071Z,100355.31
2022-12-24T09:33:42.865Z,100359.59
2022-12-24T09:36:11.525Z,100358.78
2022-12-24T09:38:40.701Z,100364.06
2022-12-24T09:41:15.612Z,100362.72
2022-12-24T09:43:48.918Z,100370.72
2022-12-24T09:46:24.299Z,100375.50
2022-12-24T09:48:57.083Z,100382.69
2022-12-24T09:51:33.087Z,100380.66
2022-12-24T09:54:06.793Z,100382.97
2022-12-24T09:56:40.776Z,100389.28
2022-12-24T09:59:15.395Z,100392.81
2022-12-24T10:01:44.162Z,100397.47
2022-12-24T10:04:15.751Z,100396.66
2022-12-24T10:06:52.022Z,100398.19
2022-12-24T10:09:26.801Z,100404.25
2022-12-24T10:12:06.161Z,100401.44
2022-12-24T10:14:53.835Z,100404.84
2022-12-24T10:17:37.441Z,100413.38
2022-12-24T10:20:26.526Z,100421.28
2022-12-24T10:23:05.726Z,100410.72
2022-12-24T10:25:39.775Z,100414.09
2022-12-24T10:28:16.261Z,100418.66
2022-12-24T10:30:49.320Z,100421.06
2022-12-24T10:33:25.375Z,100419.72
2022-12-24T10:35:56.756Z,100421.84
2022-12-24T10:38:25.748Z,100418.13
2022-12-24T10:40:56.925Z,100405.34
2022-12-24T10:43:29.870Z,100419.50
2022-12-24T10:46:02.578Z,100417.91
2022-12-24T10:48:36.962Z,100411.91
2022-12-24T10:51:07.736Z,100410.72
2022-12-24T10:53:42.998Z,100401.00
2022-12-24T10:56:14.026Z,100408.91
2022-12-24T10:58:46.536Z,100404.75
2022-12-24T11:01:15.311Z,100407.13
2022-12-24T11:03:44.029Z,100404.38
2022-12-24T11:06:14.290Z,100401.03
2022-12-24T11:08:44.635Z,100402.47
2022-12-24T11:11:16.630Z,100406.91
2022-12-24T11:13:53.218Z,100406.72
2022-12-24T11:16:27.156Z,100401.84
2022-12-24T11:18:58.237Z,100403.97
2022-12-24T11:21:31.915Z,100406.91
2022-12-24T11:24:05.384Z,100411.13
2022-12-24T11:26:33.936Z,100401.81
2022-12-24T11:29:22.699Z,100407.31
2022-12-24T11:31:52.699Z,100408.84
2022-12-24T11:34:29.238Z,100403.25
2022-12-24T11:37:14.869Z,100401.50
2022-12-24T11:39:48.489Z,100407.19
2022-12-24T11:42:33.368Z,100395.94
2022-12-24T11:45:06.951Z,100403.84
2022-12-24T11:47:37.153Z,100400.16
2022-12-24T11:50:26.015Z,100404.41
2022-12-24T11:53:00.730Z,100402.50
2022-12-24T11:55:37.533Z,100397.19
2022-12-24T11:58:17.916Z,100400.09
2022-12-24T12:00:49.896Z,100405.50
2022-12-24T12:03:29.935Z,100402.72
2022-12-24T12:06:02.186Z,100410.34
2022-12-24T12:08:33.183Z,100405.19
2022-12-24T12:11:03.687Z,100400.53
2022-12-24T12:13:34.057Z,100419.22
2022-12-24T12:16:12.875Z,100426.13
2022-12-24T12:18:48.071Z,100433.03
2022-12-24T12:21:20.222Z,100433.56
2022-12-24T12:23:52.347Z,100433.13
2022-12-24T12:26:24.191Z,100417.06
2022-12-24T12:28:57.040Z,100418.66
2022-12-24T12:31:34.080Z,100423.25
2022-12-24T12:34:10.310Z,100433.41
2022-12-24T12:36:45.828Z,100433.84
2022-12-24T12:39:14.371Z,100442.38
2022-12-24T12:41:53.559Z,100446.13
2022-12-24T12:44:50.209Z,100440.66
2022-12-24T12:47:39.087Z,100455.34
2022-12-24T12:50:15.065Z,100455.16
2022-12-24T12:53:00.226Z,100452.06
2022-12-24T12:55:40.797Z,100458.78
2022-12-24T12:58:16.460Z,100464.78
2022-12-24T13:00:47.819Z,100468.53
2022-12-24T13:03:40.983Z,100458.78
2022-12-24T13:06:23.761Z,100453.63
2022-12-24T13:09:21.606Z,100461.09
2022-12-24T13:12:13.811Z,100473.97
2022-12-24T13:14:58.412Z,100472.41
2022-12-24T13:17:56.680Z,100478.19
2022-12-24T13:20:29.640Z,100480.78
2022-12-24T13:23:01.589Z,100481.19
2022-12-24T13:25:38.489Z,100484.53
2022-12-24T13:28:34.237Z,100490.00
2022-12-24T13:31:27.922Z,100494.66
2022-12-24T13:34:02.192Z,100498.00
2022-12-24T13:37:04.956Z,100501.06
2022-12-24T13:40:18.180Z,100493.84
2022-12-24T13:42:52.573Z,100498.94
2022-12-24T13:45:44.511Z,100507.25
2022-12-24T13:48:28.395Z,100508.47
2022-12-24T13:50:59.946Z,100517.78
2022-12-24T13:53:33.611Z,100518.97
2022-12-24T13:56:08.567Z,100521.94
2022-12-24T13:58:41.723Z,100512.00
2022-12-24T14:01:14.450Z,100515.34
2022-12-24T14:03:46.603Z,100518.00
2022-12-24T14:06:25.941Z,100517.38
2022-12-24T14:08:59.194Z,100524.06
2022-12-24T14:11:32.947Z,100519.59
2022-12-24T14:14:27.767Z,100518.47
2022-12-24T14:16:59.601Z,100521.34
2022-12-24T14:19:37.365Z,100525.97
2022-12-24T14:22:20.565Z,100529.22
2022-12-24T14:24:56.274Z,100524.38
2022-12-24T14:27:30.267Z,100530.84
2022-12-24T14:30:05.272Z,100540.38
2022-12-24T14:32:38.809Z,100541.50
2022-12-24T14:35:10.710Z,100547.09
2022-12-24T14:37:39.954Z,100543.69
2022-12-24T14:40:18.090Z,100560.94
2022-12-24T14:42:56.411Z,100555.06
2022-12-24T14:45:33.177Z,100565.50
2022-12-24T14:48:12.473Z,100558.44
2022-12-24T14:50:52.678Z,100561.94
2022-12-24T14:53:29.841Z,100568.66
2022-12-24T14:55:59.736Z,100575.25
2022-12-24T14:58:31.370Z,100585.19
2022-12-24T15:01:02.527Z,100588.50
2022-12-24T15:03:33.049Z,100591.34
2022-12-24T15:06:05.383Z,100593.94
2022-12-24T15:08:38.793Z,100589.63
2022-12-24T15:11:11.273Z,100590.81
2022-12-24T15:13:42.726Z,100597.41
2022-12-24T15:16:13.824Z,100601.13
2022-12-24T15:18:45.892Z,100596.06
2022-12-24T15:21:30.525Z,100613.44
2022-12-24T15:23:59.434Z,100610.91
2022-12-24T15:26:34.897Z,100614.56
2022-12-24T15:29:21.837Z,100616.72
2022-12-24T15:31:53.849Z,100611.59
2022-12-24T15:34:30.867Z,100616.56
2022-12-24T15:37:08.479Z,100617.91
2022-12-24T15:39:39.165Z,100614.72
2022-12-24T15:42:18.584Z,100625.72
2022-12-24T15:44:59.941Z,100634.22
2022-12-24T15:47:37.631Z,100631.22
2022-12-24T15:50:15.316Z,100637.00
2022-12-24T15:52:45.308Z,100632.41
2022-12-24T15:55:28.396Z,100642.47
2022-12-24T15:57:58.405Z,100643.84
2022-12-24T16:00:31.051Z,100642.75
2022-12-24T16:03:11.954Z,100653.94
2022-12-24T16:05:40.908Z,100651.00
2022-12-24T16:08:29.250Z,100649.09
2022-12-24T16:11:13.644Z,100648.28
2022-12-24T16:13:45.112Z,100647.78
2022-12-24T16:16:17.399Z,100654.28
2022-12-24T16:18:59.824Z,100654.28
2022-12-24T16:21:31.985Z,100656.50
2022-12-24T16:24:07.111Z,100653.22
2022-12-24T16:26:35.984Z,100654.84
2022-12-24T16:29:05.756Z,100657.56
2022-12-24T16:31:40.084Z,100662.41
2022-12-24T16:34:12.606Z,100661.59
2022-12-24T16:36:42.861Z,100658.31
2022-12-24T16:39:26.721Z,100657.78
2022-12-24T16:42:14.615Z,100664.50
2022-12-24T16:44:45.224Z,100655.75
2022-12-24T16:47:15.293Z,100665.53
2022-12-24T16:49:43.808Z,100669.81
2022-12-24T16:52:18.492Z,100666.50
2022-12-24T16:54:47.060Z,100673.25
2022-12-24T16:57:15.512Z,100675.16
2022-12-24T16:59:45.645Z,100671.81
2022-12-24T17:02:15.766Z,100680.72
2022-12-24T17:04:44.906Z,100683.16
2022-12-24T17:07:14.095Z,100686.69
2022-12-24T17:09:43.786Z,100685.06
2022-12-24T17:12:13.679Z,100699.97
2022-12-24T17:14:43.240Z,100699.75
2022-12-24T17:17:22.084Z,100705.47
2022-12-24T17:19:50.850Z,100710.88
2022-12-24T17:22:19.823Z,100701.75
2022-12-24T17:24:48.225Z,100694.72
2022-12-24T17:27:16.831Z,100697.44
2022-12-24T17:29:45.237Z,100696.31
2022-12-24T17:32:15.280Z,100703.91
2022-12-24T17:34:43.755Z,100694.16
2022-12-24T17:37:12.429Z,100704.00
2022-12-24T17:39:40.964Z,100708.88
2022-12-24T17:42:09.260Z,100693.66
2022-12-24T17:44:38.110Z,100693.66
2022-12-24T17:47:06.601Z,100693.38
2022-12-24T17:49:36.303Z,100696.91
2022-12-24T17:52:05.562Z,100696.31
2022-12-24T17:54:33.956Z,100699.31
2022-12-24T17:57:02.776Z,100703.91
2022-12-24T17:59:31.158Z,100700.84
2022-12-24T18:01:59.662Z,100712.75
2022-12-24T18:04:28.206Z,100714.03
2022-12-24T18:07:02.420Z,100717.81
2022-12-24T18:09:31.765Z,100711.28
2022-12-24T18:12:00.843Z,100717.78
2022-12-24T18:14:29.338Z,100717.25
2022-12-24T18:16:57.658Z,100724.84
2022-12-24T18:19:26.105Z,100715.94
2022-12-24T18:21:54.795Z,100722.72
2022-12-24T18:24:24.702Z,100721.97
2022-12-24T18:26:53.043Z,100720.63
2022-12-24T18:29:21.394Z,100711.16
2022-12-24T18:31:49.795Z,100709.84
2022-12-24T18:34:18.540Z,100708.72
2022-12-24T18:36:51.289Z,100706.28
2022-12-24T18:39:24.628Z,100717.06
2022-12-24T18:41:53.002Z,100712.44
2022-12-24T18:44:25.426Z,100719.97
2022-12-24T18:46:54.645Z,100723.16
2022-12-24T18:49:23.061Z,100728.59
2022-12-24T18:51:51.496Z,100723.13
2022-12-24T18:54:19.949Z,100721.53
2022-12-24T18:56:51.173Z,100729.09
2022-12-24T18:59:20.648Z,100718.75
2022-12-24T19:01:49.300Z,100710.06
2022-12-24T19:04:17.844Z,100708.44
2022-12-24T19:06:52.779Z,100711.09
2022-12-24T19:09:22.014Z,100712.97
2022-12-24T19:11:51.773Z,100713.81
2022-12-24T19:14:20.811Z,100712.72
2022-12-24T19:16:49.266Z,100715.19
2022-12-24T19:19:18.773Z,100720.31
2022-12-24T19:21:47.313Z,100715.94
2022-12-24T19:24:15.746Z,100716.25
2022-12-24T19:26:44.048Z,100717.88
2022-12-24T19:29:13.922Z,100720.91
2022-12-24T19:31:44.313Z,100714.69
2022-12-24T19:34:12.923Z,100721.94
2022-12-24T19:36:41.453Z,100720.31
2022-12-24T19:39:09.991Z,100719.22
2022-12-24T19:41:38.609Z,100717.59
2022-12-24T19:44:07.126Z,100718.16
2022-12-24T19:46:38.012Z,100726.78
2022-12-24T19:49:09.019Z,100732.78
2022-12-24T19:51:37.727Z,100728.16
2022-12-24T19:54:13.367Z,100733.84
2022-12-24T19:56:43.468Z,100725.19
2022-12-24T19:59:12.147Z,100732.53
2022-12-24T20:01:42.013Z,100724.09
2022-12-24T20:04:10.576Z,100722.19
2022-12-24T20:06:39.379Z,100721.94
2022-12-24T20:09:09.071Z,100727.38
2022-12-24T20:11:37.827Z,100726.81
2022-12-24T20:14:07.492Z,100728.19
2022-12-24T20:16:36.627Z,100723.59
2022-12-24T20:19:07.831Z,100736.38
2022-12-24T20:21:37.878Z,100737.22
2022-12-24T20:24:07.490Z,100738.91
2022-12-24T20:26:36.474Z,100738.09
2022-12-24T20:29:06.588Z,100732.94
2022-12-24T20:31:35.769Z,100740.00
2022-12-24T20:34:07.575Z,100745.16
2022-12-24T20:36:37.133Z,100744.06
2022-12-24T20:39:07.985Z,100752.22
2022-12-24T20:41:37.576Z,100744.06
2022-12-24T20:44:06.241Z,100747.59
2022-12-24T20:46:35.292Z,100746.78
2022-12-24T20:49:03.920Z,100738.41
2022-12-24T20:51:33.782Z,100758.47
2022-12-24T20:54:02.737Z,100763.88
2022-12-24T20:56:31.837Z,100762.03
2022-12-24T20:59:01.580Z,100770.41
2022-12-24T21:01:30.599Z,100761.22
2022-12-24T21:04:04.215Z,100755.03
2022-12-24T21:06:34.433Z,100776.47
2022-12-24T21:09:03.698Z,100769.44
2022-12-24T21:11:50.016Z,100765.97
2022-12-24T21:14:20.505Z,100763.50
2022-12-24T21:16:50.188Z,100763.50
2022-12-24T21:19:21.298Z,100765.41
2022-12-24T21:21:51.705Z,100767.84
2022-12-24T21:24:20.219Z,100760.50
2022-12-24T21:26:48.629Z,100759.41
2022-12-24T21:29:16.945Z,100761.63
2022-12-24T21:31:46.063Z,100757.66
2022-12-24T21:34:14.513Z,100746.84
2022-12-24T21:36:43.053Z,100742.50
2022-12-24T21:39:12.786Z,100744.16
2022-12-24T21:41:41.203Z,100749.06
2022-12-24T21:44:09.594Z,100749.94
2022-12-24T21:46:38.097Z,100739.09
2022-12-24T21:49:24.164Z,100737.72
2022-12-24T21:51:52.827Z,100739.91
2022-12-24T21:54:27.240Z,100739.91
2022-12-24T21:57:15.660Z,100737.47
2022-12-24T21:59:44.481Z,100727.22
2022-12-24T22:02:15.128Z,100736.19
2022-12-24T22:04:44.263Z,100731.03
2022-12-24T22:07:39.676Z,100722.91
2022-12-24T22:10:29.684Z,100721.06
2022-12-24T22:13:00.018Z,100717.81
2022-12-24T22:15:28.471Z,100707.75
2022-12-24T22:17:56.967Z,100710.22
2022-12-24T22:20:25.495Z,100708.09
2022-12-24T22:22:53.878Z,100712.47
2022-12-24T22:25:24.097Z,100706.47
2022-12-24T22:27:52.731Z,100710.81
2022-12-24T22:30:21.151Z,100697.25
2022-12-24T22:32:49.590Z,100695.63
2022-12-24T22:35:18.134Z,100688.03
2022-12-24T22:37:46.740Z,100688.00
2022-12-24T22:40:15.573Z,100692.88
2022-12-24T22:42:45.465Z,100686.38
2022-12-24T22:45:19.988Z,100693.44
2022-12-24T22:47:50.951Z,100693.47
2022-12-24T22:50:19.690Z,100678.50
2022-12-24T22:52:48.075Z,100678.25
2022-12-24T22:55:16.608Z,100684.19
2022-12-24T22:57:46.475Z,100688.28
2022-12-24T23:00:20.320Z,100684.22
2022-12-24T23:03:05.698Z,100693.72
2022-12-24T23:05:35.022Z,100696.19
2022-12-24T23:08:04.284Z,100698.88
2022-12-24T23:10:32.869Z,100692.91
2022-12-24T23:13:20.045Z,100687.22
2022-12-24T23:15:48.727Z,100700.78
2022-12-24T23:18:17.590Z,100693.72
2022-12-24T23:20:46.306Z,100699.66
2022-12-24T23:23:15.018Z,100692.88
2022-12-24T23:25:43.691Z,100683.09
2022-12-24T23:28:13.669Z,100691.78
2022-12-24T23:30:42.199Z,100684.72
2022-12-24T23:33:10.609Z,100689.03
2022-12-24T23:35:39.039Z,100692.81
2022-12-24T23:38:07.483Z,100687.34
2022-12-24T23:40:36.058Z,100679.66
2022-12-24T23:43:04.444Z,100691.53
2022-12-24T23:45:34.227Z,100694.75
2022-12-24T23:48:02.655Z,100700.19
2022-12-24T23:50:31.143Z,100694.56
2022-12-24T23:52:59.704Z,100702.72
2022-12-24T23:55:28.158Z,100710.16
2022-12-24T23:57:56.574Z,100713.97
